Time;durP1;ratioP1;P1;durP2;ratioP2;P2;SDS_P1;SDS_P2;PMS_P1;PMS_P2;Temp;Humidity;BMP_temperature;BMP_pressure;BME280_temperature;BME280_humidity;BME280_pressure;Samples;Min_cycle;Max_cycle;Signal;HPM_P1;HPM_P2
2023/10/15 00:02:14;;;;;;;48.97;23.85;;;16.00;99.90;;;;;;4917979;29;20035;-81
2023/10/15 00:04:41;;;;;;;37.20;24.65;;;16.00;99.90;;;;;;4912201;29;20031;-81
2023/10/15 00:07:07;;;;;;;51.10;24.13;;;16.00;99.90;;;;;;4881507;29;20502;-81
2023/10/15 00:09:34;;;;;;;43.05;23.45;;;16.00;99.90;;;;;;4932130;29;20226;-81
2023/10/15 00:12:00;;;;;;;44.67;23.08;;;16.10;99.90;;;;;;4948406;29;20035;-82
2023/10/15 00:14:27;;;;;;;39.70;22.67;;;16.20;99.90;;;;;;4928767;29;20032;-81
2023/10/15 00:16:53;;;;;;;41.20;22.23;;;16.20;99.90;;;;;;4929096;29;20061;-81
2023/10/15 00:19:20;;;;;;;39.90;23.45;;;16.10;99.90;;;;;;4913336;29;20024;-80
2023/10/15 00:21:47;;;;;;;39.05;22.25;;;16.10;99.90;;;;;;4898590;29;20495;-81
2023/10/15 00:24:14;;;;;;;45.20;22.52;;;16.10;99.90;;;;;;4897401;29;20044;-80
2023/10/15 00:26:41;;;;;;;51.03;23.45;;;16.20;99.90;;;;;;4897553;29;20036;-81
2023/10/15 00:29:08;;;;;;;40.67;21.83;;;16.20;99.90;;;;;;4897537;29;20151;-80
2023/10/15 00:31:34;;;;;;;42.70;22.95;;;16.20;99.90;;;;;;4913208;29;20036;-80
2023/10/15 00:34:01;;;;;;;36.88;21.98;;;16.20;99.90;;;;;;4928745;29;20037;-81
2023/10/15 00:36:27;;;;;;;41.05;22.52;;;16.20;99.90;;;;;;4931829;29;20474;-81
2023/10/15 00:38:54;;;;;;;37.28;22.67;;;16.10;99.90;;;;;;4947932;29;20031;-81
2023/10/15 00:41:20;;;;;;;38.25;22.85;;;16.00;99.90;;;;;;4947898;29;20039;-81
2023/10/15 00:43:51;;;;;;;39.35;22.35;;;16.10;99.90;;;;;;4931681;29;20056;-81
2023/10/15 00:46:19;;;;;;;49.63;22.92;;;16.00;99.90;;;;;;4899812;29;20035;-81
2023/10/15 00:48:46;;;;;;;34.45;21.45;;;16.00;99.90;;;;;;4912901;29;20067;-81
2023/10/15 00:51:13;;;;;;;41.35;22.20;;;16.00;99.90;;;;;;4912728;29;20036;-81
2023/10/15 00:53:50;;;;;;;39.90;22.10;;;16.00;99.90;;;;;;4912658;29;20039;-81
2023/10/15 00:56:23;;;;;;;37.28;21.08;;;16.00;99.90;;;;;;4915325;29;20024;-82
2023/10/15 01:01:26;;;;;;;43.28;22.13;;;15.90;99.90;;;;;;4947513;29;20039;-81
2023/10/15 01:03:59;;;;;;;40.42;22.58;;;15.90;99.90;;;;;;4931476;29;20036;-81
2023/10/15 01:09:18;;;;;;;38.55;22.42;;;15.90;99.90;;;;;;4928343;29;20045;-81
2023/10/15 01:11:58;;;;;;;39.93;21.93;;;16.00;99.90;;;;;;4928318;29;20035;-82
2023/10/15 01:14:32;;;;;;;40.30;19.92;;;16.00;99.90;;;;;;4900227;29;20036;-81
2023/10/15 01:17:00;;;;;;;36.27;20.73;;;16.00;99.90;;;;;;4931215;29;20521;-79
2023/10/15 01:19:34;;;;;;;42.05;21.63;;;16.00;99.90;;;;;;4915519;29;20032;-79
2023/10/15 01:22:10;;;;;;;39.35;21.67;;;16.00;99.90;;;;;;4947389;29;20497;-79
2023/10/15 01:24:38;;;;;;;42.53;21.20;;;16.00;99.90;;;;;;4911979;29;20033;-80
2023/10/15 01:29:35;;;;;;;39.53;21.55;;;15.90;99.90;;;;;;4897678;29;20040;-79
2023/10/15 01:32:18;;;;;;;46.72;22.58;;;15.90;99.90;;;;;;4897895;29;20025;-79
2023/10/15 01:34:45;;;;;;;33.95;20.90;;;15.90;99.90;;;;;;4932705;29;20032;-79
2023/10/15 01:37:24;;;;;;;38.45;21.17;;;15.90;99.90;;;;;;4915672;29;20411;-79
2023/10/15 01:40:26;;;;;;;39.08;22.00;;;15.90;99.90;;;;;;4927611;29;20482;-80
2023/10/15 01:42:53;;;;;;;47.53;22.98;;;15.90;99.90;;;;;;4934234;29;20055;-79
2023/10/15 01:45:37;;;;;;;44.25;21.20;;;15.90;99.90;;;;;;4926378;29;20064;-79
2023/10/15 01:48:05;;;;;;;37.95;21.40;;;15.90;99.90;;;;;;4947119;29;20196;-80
2023/10/15 01:50:49;;;;;;;34.90;21.23;;;15.90;99.90;;;;;;4915434;29;20028;-80
2023/10/15 01:53:16;;;;;;;;;;;15.90;99.90;;;;;;4916868;29;20077;-80
2023/10/15 01:55:52;;;;;;;33.72;19.27;;;15.90;99.90;;;;;;4903591;29;19935;-80
2023/10/15 01:58:32;;;;;;;37.72;20.50;;;15.90;99.90;;;;;;4896464;29;20044;-80
2023/10/15 02:01:13;;;;;;;37.65;20.95;;;15.90;99.90;;;;;;4897685;29;20538;-80
2023/10/15 02:03:43;;;;;;;37.05;21.33;;;16.00;99.90;;;;;;4899891;29;20048;-80
2023/10/15 02:06:09;;;;;;;38.42;20.60;;;16.00;99.90;;;;;;4912284;29;20486;-80
2023/10/15 02:08:39;;;;;;;40.42;20.42;;;15.90;99.90;;;;;;4930878;29;20383;-79
2023/10/15 02:11:11;;;;;;;39.10;19.83;;;16.00;99.90;;;;;;4946787;29;20164;-79
2023/10/15 02:13:40;;;;;;;39.17;20.67;;;16.00;99.90;;;;;;4916259;29;20087;-80
2023/10/15 02:16:09;;;;;;;36.50;19.83;;;15.90;99.90;;;;;;4932134;29;20032;-80
2023/10/15 02:18:36;;;;;;;35.42;20.42;;;15.90;99.90;;;;;;4897495;29;20124;-80
2023/10/15 02:21:02;;;;;;;36.08;20.25;;;15.90;99.90;;;;;;4897402;29;20038;-79
2023/10/15 02:23:32;;;;;;;35.72;19.15;;;15.90;99.90;;;;;;4897284;29;20375;-80
2023/10/15 02:25:59;;;;;;;37.55;18.88;;;15.90;99.90;;;;;;4925203;29;20039;-80
2023/10/15 02:28:36;;;;;;;36.05;19.48;;;15.90;99.90;;;;;;4947067;28;20498;-80
2023/10/15 02:33:38;;;;;;;42.95;20.08;;;15.80;99.90;;;;;;4919580;29;20028;-80
2023/10/15 02:36:09;;;;;;;48.05;22.05;;;15.90;99.90;;;;;;4904422;29;20107;-79
2023/10/15 02:38:40;;;;;;;34.80;19.05;;;15.90;99.90;;;;;;4900589;29;20037;-79
2023/10/15 02:41:07;;;;;;;35.92;19.48;;;15.80;99.90;;;;;;4899492;29;20162;-80
2023/10/15 02:43:40;;;;;;;32.15;18.17;;;15.80;99.90;;;;;;4900599;29;20036;-80
2023/10/15 02:46:22;;;;;;;32.10;19.20;;;15.80;99.90;;;;;;4944900;29;20036;-80
2023/10/15 02:48:55;;;;;;;32.28;18.48;;;15.80;99.90;;;;;;4949770;29;20491;-80
2023/10/15 02:51:26;;;;;;;29.38;17.95;;;15.70;99.90;;;;;;4919303;29;20036;-80
2023/10/15 02:54:18;;;;;;;38.53;19.88;;;15.70;99.90;;;;;;4949753;28;20032;-80
2023/10/15 02:56:41;;;;;;;34.22;18.92;;;15.70;99.90;;;;;;4900017;29;20490;-80
2023/10/15 02:59:08;;;;;;;33.03;19.77;;;15.70;99.90;;;;;;4900288;29;20051;-80
2023/10/15 03:01:34;;;;;;;35.47;18.88;;;15.60;99.90;;;;;;4900213;29;20033;-80
2023/10/15 03:04:09;;;;;;;34.85;18.33;;;15.60;99.90;;;;;;4898915;29;20025;-79
2023/10/15 03:06:41;;;;;;;34.05;19.52;;;15.70;99.90;;;;;;4917503;29;20048;-79
2023/10/15 03:09:18;;;;;;;36.72;19.40;;;15.70;99.90;;;;;;4949482;29;20443;-80
2023/10/15 03:11:50;;;;;;;32.53;19.10;;;15.60;99.90;;;;;;4949610;29;20119;-80
2023/10/15 03:14:16;;;;;;;31.10;18.08;;;15.60;99.90;;;;;;4918939;29;20115;-80
2023/10/15 03:16:43;;;;;;;35.20;18.30;;;15.60;99.90;;;;;;4917686;29;20099;-79
2023/10/15 03:19:18;;;;;;;28.48;17.25;;;15.60;99.90;;;;;;4917635;29;20068;-78
2023/10/15 03:21:44;;;;;;;;;;;15.60;99.90;;;;;;4950174;29;20084;-78
2023/10/15 03:24:16;;;;;;;32.67;18.75;;;15.50;99.90;;;;;;4917944;29;19954;-79
2023/10/15 03:26:47;;;;;;;32.28;18.52;;;15.50;99.90;;;;;;4914897;29;20509;-79
2023/10/15 03:29:14;;;;;;;37.13;19.40;;;15.50;99.90;;;;;;4930010;29;20076;-79
2023/10/15 03:31:54;;;;;;;30.30;18.42;;;15.50;99.90;;;;;;4899699;29;20056;-79
2023/10/15 03:34:25;;;;;;;32.03;19.27;;;15.40;99.90;;;;;;4898282;29;20036;-79
2023/10/15 03:36:57;;;;;;;33.35;19.83;;;15.30;99.90;;;;;;4914176;29;20127;-78
2023/10/15 03:42:09;;;;;;;35.28;19.58;;;15.20;99.90;;;;;;4916464;29;20033;-79
2023/10/15 03:44:44;;;;;;;35.35;18.20;;;15.20;99.90;;;;;;4931716;29;20028;-79
2023/10/15 03:47:16;;;;;;;32.45;18.98;;;15.10;99.90;;;;;;4918261;29;20028;-78
2023/10/15 03:49:46;;;;;;;33.75;19.23;;;15.10;99.90;;;;;;4916898;29;20047;-79
2023/10/15 03:52:20;;;;;;;29.02;17.42;;;15.10;99.90;;;;;;4918266;29;20054;-78
2023/10/15 03:55:05;;;;;;;34.88;19.85;;;15.10;99.90;;;;;;4917939;29;20064;-78
2023/10/15 03:57:34;;;;;;;34.83;19.73;;;15.00;99.90;;;;;;4902151;29;20024;-78
2023/10/15 04:00:01;;;;;;;37.22;20.63;;;15.00;99.90;;;;;;4899320;29;20032;-78
2023/10/15 04:05:29;;;;;;;35.03;18.10;;;15.10;99.90;;;;;;4887745;29;20075;-78
2023/10/15 04:07:56;;;;;;;36.63;19.75;;;15.00;99.90;;;;;;4917951;29;20050;-79
2023/10/15 04:10:23;;;;;;;35.63;18.80;;;15.00;99.90;;;;;;4917912;29;20040;-79
2023/10/15 04:12:52;;;;;;;32.22;19.02;;;15.00;99.90;;;;;;4917854;29;20103;-79
2023/10/15 04:15:21;;;;;;;34.20;19.20;;;15.10;99.90;;;;;;4911132;29;20100;-79
2023/10/15 04:17:48;;;;;;;36.35;19.33;;;15.00;99.90;;;;;;4897752;29;20108;-78
2023/10/15 04:20:15;;;;;;;29.30;18.75;;;15.00;99.90;;;;;;4898779;29;20029;-79
2023/10/15 04:22:47;;;;;;;31.05;19.25;;;15.00;99.90;;;;;;4898676;29;20087;-79
2023/10/15 04:25:23;;;;;;;33.78;18.92;;;15.00;99.90;;;;;;4934609;29;20114;-79
2023/10/15 04:27:51;;;;;;;37.20;19.92;;;15.00;99.90;;;;;;4917527;29;20108;-79
2023/10/15 04:30:20;;;;;;;37.78;20.13;;;15.00;99.90;;;;;;4917337;29;20516;-79
2023/10/15 04:32:47;;;;;;;33.10;20.35;;;15.00;99.90;;;;;;4916195;29;20091;-79
2023/10/15 04:35:25;;;;;;;39.10;20.35;;;15.00;99.90;;;;;;4911758;29;20051;-79
2023/10/15 04:37:52;;;;;;;34.00;20.17;;;15.20;99.90;;;;;;4898592;29;20028;-79
2023/10/15 04:40:27;;;;;;;37.15;20.77;;;15.40;99.90;;;;;;4914348;29;20028;-79
2023/10/15 04:42:59;;;;;;;44.15;23.05;;;15.60;99.90;;;;;;4916159;29;20509;-79
2023/10/15 04:48:12;;;;;;;40.22;20.63;;;15.90;99.90;;;;;;4898960;29;20024;-79
2023/10/15 04:50:40;;;;;;;41.15;20.98;;;16.00;99.90;;;;;;4928899;29;20084;-79
2023/10/15 04:53:13;;;;;;;37.75;20.85;;;16.10;99.90;;;;;;4912478;29;20032;-79
2023/10/15 04:55:41;;;;;;;37.63;20.27;;;16.10;99.90;;;;;;4906873;29;20438;-79
2023/10/15 04:58:07;;;;;;;39.58;20.75;;;16.10;99.90;;;;;;4917087;29;20695;-79
2023/10/15 05:00:35;;;;;;;42.90;21.00;;;16.20;99.90;;;;;;4947597;29;20159;-79
2023/10/15 05:03:02;;;;;;;35.75;20.20;;;16.30;99.90;;;;;;4917006;29;20486;-79
2023/10/15 05:05:31;;;;;;;38.33;20.25;;;16.30;99.90;;;;;;4909452;29;20570;-78
2023/10/15 05:08:00;;;;;;;33.70;19.55;;;16.40;99.90;;;;;;4898145;29;20036;-79
2023/10/15 05:10:32;;;;;;;39.50;19.75;;;16.50;99.90;;;;;;4881312;29;20051;-79
2023/10/15 05:13:00;;;;;;;36.72;19.42;;;16.60;99.90;;;;;;4928228;29;20025;-79
2023/10/15 05:15:27;;;;;;;38.97;19.58;;;16.70;99.90;;;;;;4904500;29;20471;-79
2023/10/15 05:17:53;;;;;;;39.67;19.70;;;16.70;99.90;;;;;;4916836;29;20036;-79
2023/10/15 05:20:22;;;;;;;41.65;19.48;;;16.80;99.90;;;;;;4916813;29;20072;-79
2023/10/15 05:22:49;;;;;;;39.55;19.80;;;16.80;99.90;;;;;;4931284;29;20482;-79
2023/10/15 05:25:19;;;;;;;39.33;20.23;;;16.90;99.90;;;;;;4911630;29;20081;-79
2023/10/15 05:27:51;;;;;;;42.00;19.52;;;16.90;99.90;;;;;;4897863;29;20086;-80
2023/10/15 05:30:19;;;;;;;41.05;19.98;;;17.00;99.90;;;;;;4912428;29;20502;-79
2023/10/15 05:32:50;;;;;;;36.53;19.90;;;17.00;99.90;;;;;;4912348;29;20112;-79
2023/10/15 05:35:17;;;;;;;38.83;19.40;;;17.00;99.90;;;;;;4902716;29;20036;-78
2023/10/15 05:37:45;;;;;;;38.72;19.52;;;17.10;99.90;;;;;;4947154;29;20717;-79
2023/10/15 05:40:15;;;;;;;37.22;20.75;;;17.10;99.90;;;;;;4916389;29;20442;-79
2023/10/15 05:42:42;;;;;;;39.65;20.48;;;17.20;99.90;;;;;;4917336;29;20044;-78
2023/10/15 05:45:09;;;;;;;36.50;18.85;;;17.30;99.90;;;;;;4915195;29;20052;-79
2023/10/15 05:47:36;;;;;;;43.33;18.30;;;17.50;99.90;;;;;;4915350;29;20446;-79
2023/10/15 05:50:05;;;;;;;37.70;18.25;;;17.90;99.90;;;;;;4916665;29;20047;-78
2023/10/15 05:52:32;;;;;;;32.22;18.00;;;18.40;99.90;;;;;;4915246;29;20028;-81
2023/10/15 05:55:00;;;;;;;43.50;22.25;;;19.00;99.90;;;;;;4915186;29;20040;-80
2023/10/15 05:57:28;;;;;;;47.30;24.67;;;19.40;99.90;;;;;;4947175;29;20517;-80
2023/10/15 05:59:54;;;;;;;44.40;26.60;;;19.60;99.90;;;;;;4916388;29;20107;-81
2023/10/15 06:02:21;;;;;;;40.35;25.40;;;20.00;99.90;;;;;;4946944;29;20036;-82
2023/10/15 06:04:47;;;;;;;41.55;28.58;;;20.30;99.90;;;;;;4945592;28;20470;-81
2023/10/15 06:07:15;;;;;;;44.70;29.58;;;20.60;99.90;;;;;;4915359;29;20443;-82
2023/10/15 06:09:45;;;;;;;33.72;29.50;;;20.70;99.90;;;;;;4915445;29;20100;-82
2023/10/15 06:12:13;;;;;;;39.40;32.13;;;21.00;99.90;;;;;;4916100;29;20095;-83
2023/10/15 06:14:40;;;;;;;47.92;32.85;;;20.90;99.90;;;;;;4900042;29;20526;-82
2023/10/15 06:17:07;;;;;;;37.35;31.83;;;21.10;99.90;;;;;;4950339;29;20032;-82
2023/10/15 06:19:34;;;;;;;38.72;33.85;;;21.20;99.90;;;;;;4919857;29;20052;-82
2023/10/15 06:22:00;;;;;;;44.75;34.88;;;21.80;99.90;;;;;;4950168;29;20094;-81
2023/10/15 06:24:26;;;;;;;38.78;33.63;;;22.10;99.90;;;;;;4934275;29;20071;-82
2023/10/15 06:26:54;;;;;;;44.33;33.28;;;22.00;99.90;;;;;;4933237;29;20088;-82
2023/10/15 06:29:20;;;;;;;39.95;33.17;;;22.10;99.90;;;;;;4899717;29;20032;-82
2023/10/15 06:31:46;;;;;;;37.42;33.50;;;22.10;99.90;;;;;;4930925;29;20029;-81
2023/10/15 06:34:15;;;;;;;40.97;31.95;;;22.40;99.90;;;;;;4915005;29;20119;-83
2023/10/15 06:36:42;;;;;;;37.08;31.58;;;22.60;99.90;;;;;;4914881;29;20036;-82
2023/10/15 06:39:08;;;;;;;39.78;31.90;;;22.60;99.90;;;;;;4900504;29;20100;-84
2023/10/15 06:41:36;;;;;;;38.72;34.05;;;22.70;99.90;;;;;;4915700;29;20071;-81
2023/10/15 06:44:04;;;;;;;40.40;35.97;;;22.60;99.90;;;;;;4900433;29;20451;-81
2023/10/15 06:46:33;;;;;;;42.58;35.00;;;23.20;99.90;;;;;;4914589;29;20480;-81
2023/10/15 06:48:59;;;;;;;45.50;35.65;;;23.50;99.90;;;;;;4934389;29;20040;-81
2023/10/15 06:51:27;;;;;;;40.33;35.63;;;23.40;99.90;;;;;;4918395;29;20080;-81
2023/10/15 06:53:54;;;;;;;41.65;35.45;;;23.40;99.90;;;;;;4918197;29;20064;-81
2023/10/15 06:56:21;;;;;;;47.47;36.28;;;23.20;99.90;;;;;;4921397;29;20502;-81
2023/10/15 06:58:48;;;;;;;42.20;37.47;;;23.50;99.90;;;;;;4899095;29;20025;-81
2023/10/15 07:01:14;;;;;;;41.28;36.72;;;23.80;99.90;;;;;;4899089;29;20036;-81
2023/10/15 07:03:43;;;;;;;42.33;36.15;;;24.10;99.90;;;;;;4930683;29;20096;-82
2023/10/15 07:06:11;;;;;;;40.60;36.08;;;24.00;99.90;;;;;;4910520;29;20048;-81
2023/10/15 07:08:38;;;;;;;38.95;34.85;;;24.40;99.90;;;;;;4918965;29;20040;-82
2023/10/15 07:11:05;;;;;;;38.47;34.45;;;24.50;99.90;;;;;;4919320;29;20036;-80
2023/10/15 07:13:34;;;;;;;37.72;33.63;;;24.50;99.90;;;;;;4951478;29;20071;-82
2023/10/15 07:16:01;;;;;;;39.00;34.55;;;24.50;99.90;;;;;;4909124;29;20402;-82
2023/10/15 07:18:28;;;;;;;39.60;35.40;;;24.50;99.90;;;;;;4931462;29;20025;-83
2023/10/15 07:20:55;;;;;;;39.10;35.13;;;25.00;99.90;;;;;;4901420;29;20036;-84
2023/10/15 07:23:21;;;;;;;37.10;33.80;;;25.20;99.90;;;;;;4902888;29;20053;-84
2023/10/15 07:25:48;;;;;;;38.33;34.60;;;25.20;99.90;;;;;;4937576;29;20024;-83
2023/10/15 07:28:14;;;;;;;38.25;34.40;;;25.30;99.90;;;;;;4919016;29;20036;-83
2023/10/15 07:30:41;;;;;;;38.33;34.92;;;25.50;99.90;;;;;;4918229;29;20131;-82
2023/10/15 07:33:08;;;;;;;39.53;35.90;;;25.70;99.90;;;;;;4951066;29;20125;-84
2023/10/15 07:35:35;;;;;;;37.78;34.38;;;25.80;99.90;;;;;;4931692;29;20033;-84
2023/10/15 07:38:02;;;;;;;39.17;35.00;;;25.90;99.90;;;;;;4917531;29;20025;-85
2023/10/15 07:40:32;;;;;;;39.60;35.95;;;26.20;99.90;;;;;;4922870;29;20034;-85
2023/10/15 07:42:59;;;;;;;41.97;34.30;;;26.20;99.90;;;;;;4936036;29;20040;-85
2023/10/15 07:45:27;;;;;;;35.70;32.50;;;26.50;99.90;;;;;;4934540;29;20042;-85
2023/10/15 07:47:54;;;;;;;36.17;32.80;;;26.20;99.90;;;;;;4935332;29;20036;-85
2023/10/15 07:50:24;;;;;;;36.40;32.70;;;26.20;99.90;;;;;;4928665;29;20042;-84
2023/10/15 07:52:52;;;;;;;36.72;33.35;;;26.60;99.90;;;;;;4938040;29;20032;-84
2023/10/15 07:55:19;;;;;;;36.63;33.45;;;26.40;99.90;;;;;;4934147;29;20047;-84
2023/10/15 07:57:46;;;;;;;36.78;33.13;;;26.30;99.90;;;;;;4934733;29;20039;-84
2023/10/15 08:00:33;;;;;;;35.00;31.77;;;26.50;99.90;;;;;;4951797;29;20028;-84
2023/10/15 08:03:01;;;;;;;34.67;31.67;;;26.40;99.90;;;;;;4908027;29;20028;-84
2023/10/15 08:05:31;;;;;;;35.72;32.40;;;26.50;99.90;;;;;;4904673;29;20056;-85
2023/10/15 08:07:58;;;;;;;34.83;31.45;;;26.50;99.90;;;;;;4917306;29;20036;-85
2023/10/15 08:10:32;;;;;;;35.47;32.35;;;26.50;99.90;;;;;;4902751;29;20056;-83
2023/10/15 08:13:04;;;;;;;37.80;33.33;;;26.60;99.90;;;;;;4901842;29;20032;-84
2023/10/15 08:15:35;;;;;;;36.67;33.47;;;26.70;99.90;;;;;;4918779;29;20100;-84
2023/10/15 08:18:05;;;;;;;36.63;33.25;;;26.60;99.90;;;;;;4918798;29;20048;-83
2023/10/15 08:20:31;;;;;;;38.17;33.30;;;26.50;99.90;;;;;;4902726;29;20062;-86
2023/10/15 08:22:58;;;;;;;36.83;33.25;;;26.60;99.90;;;;;;4902700;29;20439;-87
2023/10/15 08:25:25;;;;;;;39.78;35.85;;;26.60;99.90;;;;;;4918679;29;20034;-84
2023/10/15 08:27:51;;;;;;;38.33;34.38;;;26.80;99.90;;;;;;4902959;29;20483;-86
2023/10/15 08:30:19;;;;;;;38.25;34.30;;;26.60;99.90;;;;;;4902870;29;20151;-86
2023/10/15 08:32:47;;;;;;;35.88;32.65;;;26.60;99.90;;;;;;4919331;29;20024;-86
2023/10/15 08:35:15;;;;;;;33.72;30.75;;;26.50;99.90;;;;;;4928527;29;20036;-87
2023/10/15 08:37:46;;;;;;;34.80;31.20;;;26.60;99.90;;;;;;4937414;29;20506;-84
2023/10/15 08:40:17;;;;;;;35.05;31.83;;;26.60;99.90;;;;;;4937805;29;20043;-86
2023/10/15 08:42:48;;;;;;;34.97;31.83;;;26.70;99.90;;;;;;4922822;29;20036;-86
2023/10/15 08:45:21;;;;;;;34.20;31.35;;;26.70;99.90;;;;;;4900841;29;20092;-87
2023/10/15 08:47:50;;;;;;;35.53;31.73;;;26.70;99.90;;;;;;4917102;29;20036;-85
2023/10/15 08:50:20;;;;;;;34.80;31.67;;;26.80;99.90;;;;;;4907380;29;20044;-86
2023/10/15 08:52:49;;;;;;;35.88;32.45;;;27.00;99.90;;;;;;4936370;29;20031;-85
2023/10/15 08:55:17;;;;;;;36.22;32.95;;;26.90;99.90;;;;;;4920091;29;20031;-86
2023/10/15 08:57:44;;;;;;;35.78;32.78;;;26.90;99.90;;;;;;4935863;29;20481;-84
2023/10/15 09:00:25;;;;;;;36.45;32.83;;;26.80;99.90;;;;;;4920602;29;20023;-86
2023/10/15 09:02:56;;;;;;;36.08;32.83;;;26.90;99.90;;;;;;4937213;29;20115;-85
2023/10/15 09:05:23;;;;;;;37.80;34.33;;;27.10;99.90;;;;;;4937086;29;20040;-86
2023/10/15 09:07:56;;;;;;;35.78;32.80;;;26.90;99.90;;;;;;4937900;29;20087;-86
2023/10/15 09:10:23;;;;;;;36.17;32.60;;;26.80;99.90;;;;;;4934455;29;20072;-85
2023/10/15 09:12:53;;;;;;;34.75;31.75;;;27.00;99.90;;;;;;4902329;29;20027;-86
2023/10/15 09:15:19;;;;;;;35.55;32.50;;;27.10;99.90;;;;;;4914880;29;20122;-86
2023/10/15 09:17:59;;;;;;;34.88;31.77;;;27.00;99.90;;;;;;4932990;29;20076;-86
2023/10/15 09:20:27;;;;;;;33.80;31.05;;;26.80;99.90;;;;;;4932712;29;20028;-86
2023/10/15 09:22:58;;;;;;;34.45;31.60;;;26.70;99.90;;;;;;4881911;29;20025;-86
2023/10/15 09:25:29;;;;;;;34.83;31.67;;;26.70;99.90;;;;;;4897356;29;20119;-86
2023/10/15 09:27:57;;;;;;;35.70;32.78;;;26.90;99.90;;;;;;4898999;29;20390;-85
2023/10/15 09:30:25;;;;;;;34.20;31.40;;;27.10;99.90;;;;;;4919951;29;20043;-86
2023/10/15 09:32:52;;;;;;;35.75;32.17;;;27.30;99.90;;;;;;4935952;29;20032;-86
2023/10/15 09:35:21;;;;;;;35.33;32.30;;;27.20;99.90;;;;;;4910476;29;20028;-86
2023/10/15 09:37:47;;;;;;;33.97;31.23;;;27.30;99.90;;;;;;4918298;29;20030;-86
2023/10/15 09:40:32;;;;;;;35.60;32.55;;;27.30;99.90;;;;;;4922028;29;20076;-85
2023/10/15 09:42:59;;;;;;;35.75;32.72;;;27.30;99.90;;;;;;4920762;29;20036;-86
2023/10/15 09:45:26;;;;;;;36.95;33.83;;;27.30;99.90;;;;;;4920080;29;20032;-85
2023/10/15 09:47:57;;;;;;;36.08;33.05;;;27.60;99.90;;;;;;4920008;29;20110;-84
2023/10/15 09:50:27;;;;;;;35.30;32.38;;;27.50;99.90;;;;;;4922020;29;20498;-85
2023/10/15 09:53:01;;;;;;;35.63;32.50;;;27.40;99.90;;;;;;4904317;29;20056;-85
2023/10/15 09:55:28;;;;;;;;;;;27.40;99.90;;;;;;4920273;29;20036;-85
2023/10/15 09:57:57;;;;;;;36.47;33.35;;;27.50;99.90;;;;;;4921580;29;19907;-86
2023/10/15 10:00:59;;;;;;;36.30;33.58;;;27.70;99.90;;;;;;4904881;29;20418;-85
2023/10/15 10:03:37;;;;;;;37.53;34.45;;;27.90;99.90;;;;;;4921244;29;20060;-86
2023/10/15 10:06:36;;;;;;;36.17;33.45;;;28.20;99.90;;;;;;4921375;29;20079;-85
2023/10/15 10:09:47;;;;;;;35.80;33.03;;;27.90;99.90;;;;;;4904726;29;20068;-85
2023/10/15 10:12:35;;;;;;;36.00;33.22;;;27.90;99.90;;;;;;4901123;29;20557;-85
2023/10/15 10:15:34;;;;;;;36.42;33.60;;;27.90;99.90;;;;;;4916788;29;20029;-85
2023/10/15 10:18:03;;;;;;;37.05;33.97;;;27.90;99.90;;;;;;4920561;29;20409;-85
2023/10/15 10:20:32;;;;;;;36.65;33.80;;;27.90;99.90;;;;;;4919874;29;20035;-84
2023/10/15 10:23:06;;;;;;;37.05;34.35;;;27.90;99.90;;;;;;4903454;29;20028;-84
2023/10/15 10:25:42;;;;;;;38.08;35.05;;;27.90;99.90;;;;;;4916728;29;20546;-84
2023/10/15 10:28:11;;;;;;;37.00;34.20;;;28.00;99.90;;;;;;4901303;29;20033;-84
2023/10/15 10:31:00;;;;;;;37.40;33.97;;;28.10;99.90;;;;;;4931751;29;20043;-84
2023/10/15 10:33:54;;;;;;;37.47;34.58;;;27.80;99.90;;;;;;4909914;29;20410;-84
2023/10/15 10:36:30;;;;;;;36.58;33.97;;;27.70;99.90;;;;;;4918603;29;20526;-83
2023/10/15 10:39:07;;;;;;;38.58;35.40;;;27.70;99.90;;;;;;4918479;29;20090;-85
2023/10/15 10:41:41;;;;;;;38.42;35.22;;;27.70;99.90;;;;;;4918495;29;20179;-85
2023/10/15 10:44:23;;;;;;;38.35;35.25;;;27.80;99.90;;;;;;4924794;29;20032;-85
2023/10/15 10:46:56;;;;;;;39.45;36.17;;;28.00;99.90;;;;;;4924736;29;20111;-84
2023/10/15 10:49:29;;;;;;;39.50;36.22;;;27.90;99.90;;;;;;4949343;28;20044;-84
2023/10/15 10:52:15;;;;;;;39.25;36.00;;;28.00;99.90;;;;;;4934313;29;20036;-85
2023/10/15 10:54:42;;;;;;;40.28;36.92;;;28.20;99.90;;;;;;4934145;29;20107;-86
2023/10/15 10:57:09;;;;;;;39.72;36.03;;;28.10;99.90;;;;;;4899312;29;20029;-83
2023/10/15 10:59:38;;;;;;;38.70;35.65;;;28.10;99.90;;;;;;4900474;29;20382;-84
2023/10/15 11:02:13;;;;;;;40.42;37.03;;;28.10;99.90;;;;;;4914926;29;20037;-85
2023/10/15 11:04:41;;;;;;;40.70;37.38;;;28.20;99.90;;;;;;4911447;29;20059;-83
2023/10/15 11:07:08;;;;;;;40.25;36.97;;;28.10;99.90;;;;;;4902482;29;20052;-85
2023/10/15 11:09:38;;;;;;;43.20;39.35;;;28.00;99.90;;;;;;4918169;29;20040;-84
2023/10/15 11:12:09;;;;;;;44.10;40.20;;;27.90;99.90;;;;;;4925949;29;20056;-85
2023/10/15 11:14:36;;;;;;;44.22;40.35;;;27.90;99.90;;;;;;4937174;29;20047;-84
2023/10/15 11:17:05;;;;;;;43.83;39.83;;;27.90;99.90;;;;;;4904331;29;20028;-84
2023/10/15 11:19:34;;;;;;;43.03;39.17;;;27.80;99.90;;;;;;4914574;29;20043;-84
2023/10/15 11:22:01;;;;;;;42.60;38.97;;;27.90;99.90;;;;;;4920350;29;20555;-83
2023/10/15 11:24:27;;;;;;;40.67;37.25;;;27.90;99.90;;;;;;4920831;29;20034;-85
2023/10/15 11:26:54;;;;;;;41.95;37.80;;;27.80;99.90;;;;;;4936570;29;20130;-84
2023/10/15 11:29:22;;;;;;;41.67;38.25;;;27.70;99.90;;;;;;4937181;29;20040;-88
2023/10/15 11:31:52;;;;;;;40.03;36.63;;;27.70;99.90;;;;;;4918314;29;20020;-83
2023/10/15 11:34:24;;;;;;;39.97;36.58;;;27.80;99.90;;;;;;4919482;29;20035;-80
2023/10/15 11:36:55;;;;;;;40.45;37.05;;;27.80;99.90;;;;;;4919170;29;20083;-80
2023/10/15 11:39:25;;;;;;;41.20;37.83;;;27.80;99.90;;;;;;4900143;29;20048;-89
2023/10/15 11:41:53;;;;;;;39.47;35.97;;;27.80;99.90;;;;;;4911792;29;20482;-91
2023/10/15 11:44:26;;;;;;;38.58;35.67;;;27.90;99.90;;;;;;4919157;29;20041;-90
2023/10/15 11:46:56;;;;;;;39.03;35.83;;;27.90;99.90;;;;;;4918980;29;20032;-88
2023/10/15 11:49:27;;;;;;;40.63;36.80;;;27.90;99.90;;;;;;4918195;29;20048;-88
2023/10/15 11:51:58;;;;;;;38.63;35.42;;;27.90;99.90;;;;;;4918597;29;20150;-92
2023/10/15 11:54:35;;;;;;;39.33;36.08;;;27.90;99.90;;;;;;4918705;29;20032;-89
2023/10/15 11:57:04;;;;;;;39.58;36.17;;;28.10;99.90;;;;;;4903306;29;20088;-88
2023/10/15 11:59:38;;;;;;;38.90;35.70;;;28.10;99.90;;;;;;4903900;29;20032;-91
2023/10/15 12:02:12;;;;;;;37.50;34.67;;;28.10;99.90;;;;;;4918187;29;20024;-85
2023/10/15 12:04:41;;;;;;;38.50;35.25;;;27.80;99.90;;;;;;4950589;29;20482;-88
2023/10/15 12:07:18;;;;;;;38.10;34.97;;;27.80;99.90;;;;;;4918401;29;20082;-90
2023/10/15 12:09:47;;;;;;;38.42;35.33;;;27.80;99.90;;;;;;4918645;29;20046;-87
2023/10/15 12:12:15;;;;;;;37.47;34.58;;;27.80;99.90;;;;;;4934430;29;20026;-88
2023/10/15 12:14:42;;;;;;;37.40;34.50;;;27.80;99.90;;;;;;4899921;29;20410;-88
2023/10/15 12:17:08;;;;;;;39.72;36.30;;;27.80;99.90;;;;;;4914784;29;20029;-89
2023/10/15 12:19:35;;;;;;;37.95;34.95;;;27.80;99.90;;;;;;4914432;29;20025;-89
2023/10/15 12:22:03;;;;;;;38.70;35.60;;;27.90;99.90;;;;;;4915748;29;20029;-89
2023/10/15 12:24:30;;;;;;;37.92;34.90;;;28.20;99.90;;;;;;4903168;29;20033;-90
2023/10/15 12:26:56;;;;;;;38.10;35.03;;;28.00;99.90;;;;;;4898455;29;20024;-86
2023/10/15 12:29:32;;;;;;;37.92;34.83;;;28.10;99.90;;;;;;4897886;29;20111;-87
2023/10/15 12:31:59;;;;;;;38.10;35.05;;;28.00;99.90;;;;;;4898003;29;20032;-90
2023/10/15 12:34:25;;;;;;;37.90;34.83;;;28.00;99.90;;;;;;4906966;29;20474;-86
2023/10/15 12:36:52;;;;;;;38.63;35.55;;;28.00;99.90;;;;;;4924691;29;20545;-88
2023/10/15 12:39:26;;;;;;;38.65;35.45;;;28.00;99.90;;;;;;4932986;29;20370;-88
2023/10/15 12:41:54;;;;;;;38.60;35.50;;;28.10;99.90;;;;;;4932852;29;20028;-87
2023/10/15 12:44:22;;;;;;;38.22;35.33;;;28.20;99.90;;;;;;4932705;29;20028;-86
2023/10/15 12:46:50;;;;;;;37.65;34.65;;;28.10;99.90;;;;;;4917241;29;20155;-88
2023/10/15 12:49:19;;;;;;;38.40;35.60;;;28.00;99.90;;;;;;4901752;29;20032;-92
2023/10/15 12:51:45;;;;;;;38.40;35.20;;;28.10;99.90;;;;;;4901505;29;20032;-88
2023/10/15 12:54:13;;;;;;;38.17;35.25;;;28.00;99.90;;;;;;4904417;29;20019;-85
2023/10/15 12:56:40;;;;;;;38.55;35.42;;;28.00;99.90;;;;;;4907096;29;20036;-84
2023/10/15 12:59:10;;;;;;;37.90;34.63;;;28.10;99.90;;;;;;4913014;29;20028;-84
2023/10/15 13:01:40;;;;;;;38.40;35.08;;;28.10;99.90;;;;;;4898267;29;20025;-85
2023/10/15 13:04:07;;;;;;;37.78;34.88;;;28.00;99.90;;;;;;4911600;29;20038;-84